Decoded Metar for LZPP (PIESTANY in SLOVAKIA) (IATA:PZY) | Meteo·Mobile Aviation Weather
aviador You're here:

LZPP Decoded Metar

PIESTANY in SLOVAKIA
Report Time2019-01-20 21:30:00
UTC Time2019-01-20 21:50:09
Flight Rules vfr VFR
Wind360° at 04 kt
W.Decomp.*RWY 01: 3.9 kt HW 0.9 kt LCW
Visibility9999 m
Phenomena:N/A
Clouds:N/A
Expected CloudBase > 400 ft AGL from Temp-Dew spread
CeilingNone
Temp-6°C (ISA -20)
Dew Point-7°C (93% RH)
AAT-10.2°C
QNH1019 hPa
Density Alt-2,096 ft
Elevation528 ft
Report Wrong Elevation
Raw Report
LZPP 202130Z AUTO 36004KT 9999 NCD M06/M07 Q1019=

Extra information for LZPP:More info

Metar Taf Metar & Taf Last 4 Metars F.Rules Stats Wind Profile Meteogram Temp Stats Airport Information Weather charts Add Link Nearby VenuesMetar ALERT Operation Metar Decoded Social comments